Tiempo atmosférico en la estación meteorológica de Nerja, Málaga (169 m.)



Fecha
DESCASC
Temp. máxima en grados centígrados (hora)
DESCASC
Temp. mínima en grados centígrados (hora)
DESCASC
Temp. media en grados centígrados
DESCASC
Racha de viento máxima en m/sg (hora)
DESCASC
Velocidad máxima media en intervalos de 10 minutos(hora)
DESCASC
Precipitaciones diarias en mm
DESCASC
Precipitaciones de 00:00 a 06:00 en mm
DESCASC
Precipitaciones de 06:00 a 12:00 en mm
DESCASC
Precipitaciones de 12:00 a 18:00 en mm
DESCASC
Precipitaciones de 18:00 a 24:00 en mm
DESCASC
05-04-2020 18.5 (15:40) 12 (04:40) 15.3 5.56 (17:00) 2.78 (04:50) 0 0 0 0 0
04-04-2020 20.4 (13:00) 12.4 (00:00) 16.4 15.56 (18:00) 8.33 (17:40) 0 0 0 0 0
03-04-2020 18.6 (15:20) 10.7 (08:00) 14.7 7.78 (12:30) 4.44 (12:30) 0.2 0 0.2 0 0
02-04-2020 14.5 (15:00) 8.2 (00:00) 11.3 7.5 (22:20) 3.89 (17:00) 28 0 21 7 0
01-04-2020 18.4 (17:10) 11.4 (00:00) 14.9 7.5 (17:20) 4.17 (13:20) 3 0.8 2.2 0 0
31-03-2020 15.5 (14:10) 11.5 (00:00) 13.5 9.72 (06:50) 4.44 (06:10) 57 14.2 13 15.4 14.4
30-03-2020 17.4 (13:40) 11.4 (00:00) 14.4 4.17 (13:40) 2.22 (23:40) 0 0 0 0 0
29-03-2020 17.4 (14:10) 10.6 (00:00) 14 5.56 (15:30) 3.06 (15:30) 0 0 0 0 0
28-03-2020 15.7 (14:30) 11.3 (00:00) 13.5 7.22 (13:40) 3.61 (13:10) 1.8 1.6 0.2 0 0
27-03-2020 16.5 (16:20) 12.1 (00:00) 14.3 8.89 (11:20) 3.89 (11:30) 0 0 0 0 0
26-03-2020 22.2 (13:50) 9.6 (00:00) 15.9 10.83 (16:00) 4.44 (15:10) 0 0 0 0 0
25-03-2020 13.4 (00:00) 10.1 (00:00) 11.8 6.39 (07:30) 3.33 (06:30) 25.6 17.6 7.4 0.6 0
24-03-2020 20.2 (15:20) 11.6 (00:00) 15.9 6.11 (01:10) 4.17 (01:10) 6 2.4 1.4 0 2.2
23-03-2020 15.3 (14:10) 9.5 (00:00) 12.4 8.06 (16:50) 3.89 (19:40) 1.8 0 0 1.8 0
22-03-2020 15.8 (17:00) 8.5 (07:20) 12.2 5.56 (12:50) 2.78 (04:40) 10.4 10.4 0 0 0
21-03-2020 18.2 (16:00) 10.3 (00:00) 14.3 12.5 (06:40) 6.67 (06:20) 28.6 18.4 1.6 0.4 8.2
20-03-2020 19.6 (14:00) 13 (00:00) 16.3 9.72 (22:20) 3.89 (23:40) 0 0 0 0 0
19-03-2020 18.8 (13:50) 12.7 (00:00) 15.7 5.83 (12:30) 3.61 (12:30) 0 0 0 0 0
18-03-2020 20.5 (05:50) 13.8 (00:00) 17.2 12.78 (05:40) 5 (11:10) 0 0 0 0 0
17-03-2020 17.8 (13:00) 11.3 (00:00) 14.5 12.5 (12:10) 5.28 (12:10) 0 0 0 0 0
16-03-2020 19.3 (14:00) 12.1 (00:00) 15.7 11.67 (16:20) 5.28 (15:50) 0 0 0 0 0
15-03-2020 15.8 (11:20) 13 (00:00) 14.4 3.61 (15:30) 1.94 (00:30) 0.4 0 0 0.4 0
14-03-2020 19.4 (12:30) 13 (00:00) 16.2 5 (14:30) 2.78 (06:20) 0 0 0 0 0
13-03-2020 21.4 (16:40) 13.9 (23:50) 17.6 5.56 (17:40) 2.78 (04:40) 0 0 0 0 0
12-03-2020 24.8 (14:20) 15.6 (00:00) 20.2 6.11 (03:10) 3.89 (03:10) 0 0 0 0 0
11-03-2020 27.3 (17:00) 13.7 (00:00) 20.5 4.17 (20:10) 2.78 (19:50) 0 0 0 0 0
10-03-2020 22.6 (13:00) 13.1 (00:00) 17.9 8.33 (11:10) 3.89 (11:10) 0 0 0 0 0
09-03-2020 22.6 (17:00) 13.7 (00:00) 18.2 6.67 (03:20) 3.33 (03:20) 0 0 0 0 0

Gráficas

Temp. máximas Temp. mínimas Temp. medias Precipitaciones Rachas de viento máximas Velocidades máximas media en intervalos de 10 minutos

Datos horarios

Fecha y hora oficial Temperatura (ºC) Velocidad del viento (km/h) Dirección del viento Racha (km/h) Dirección de racha Precipitación (mm) Presión (hPa) Tendencia (hPa) Humedad (%)
2020-04-07 23:00:00 12.9 8 Norte 9 Norte 0 -- -- 94
2020-04-07 22:00:00 13.9 2 Este 16 Norte 0 -- -- 90
2020-04-07 21:00:00 14.7 7 Norte 18 Norte 0 -- -- 88
2020-04-07 20:00:00 14.7 2 Este 6 Nordeste 0 -- -- 87
2020-04-07 19:00:00 14.8 3 Sur 5 Sudeste 0 -- -- 87
2020-04-07 18:00:00 15.1 2 Sudeste 8 Sudeste 0 -- -- 90
2020-04-07 17:00:00 15.4 3 Sudeste 10 Sudeste 0 -- -- 89
2020-04-07 16:00:00 15.6 3 Sur 6 Sur 0 -- -- 87
2020-04-07 15:00:00 15.6 3 Sur 13 Sur 0 -- -- 89
2020-04-07 14:00:00 15.8 5 Sudeste 10 Sudeste 0 -- -- 87
2020-04-07 13:00:00 15.5 4 Sudeste 17 Sudeste 0 -- -- 85
2020-04-07 12:00:00 15.7 8 Sudeste 17 Sudeste 0 -- -- 86
2020-04-07 11:00:00 15.2 4 Sudeste 13 Sur 0 -- -- 88
2020-04-07 10:00:00 14.5 3 Sudeste 9 Este 0 -- -- 90
2020-04-07 09:00:00 13.5 0 Calma 6 Norte 0 -- -- 92
2020-04-07 08:00:00 12.7 3 Nordeste 14 Norte 0 -- -- 91
2020-04-07 07:00:00 12.5 5 Norte 12 Norte 0 -- -- 93
2020-04-07 06:00:00 12.6 8 Norte 12 Norte 0 -- -- 92
2020-04-07 05:00:00 13.3 9 Norte 12 Norte 0 -- -- 91
2020-04-07 04:00:00 13.9 5 Norte 8 Norte 0 -- -- 93
2020-04-07 03:00:00 14.2 0 Calma 8 Norte 0 -- -- 94
2020-04-07 02:00:00 13.9 5 Norte 8 Norte 0 -- -- 95
2020-04-07 01:00:00 14 3 Norte 5 Nordeste 0.2 -- -- 95
2020-04-07 00:00:00 14.2 0 Calma 4 Este 0 -- -- 94
2020-04-06 23:00:00 14.4 0 Calma 4 Este 0 -- -- 93
2020-04-06 22:00:00 14.6 0 Calma 6 Sudeste 0 -- -- 89
2020-04-06 21:00:00 14.8 0 Calma 7 Sudeste 0 -- -- 89
2020-04-06 20:00:00 14.9 2 Sudeste 7 Sudeste 0 -- -- 88
2020-04-06 19:00:00 15.3 3 Sur 8 Sur 0 -- -- 86
2020-04-06 18:00:00 15.2 2 Sur 8 Sur 0 -- -- 87
2020-04-06 17:00:00 15.9 4 Sur 13 Sudoeste 0 -- -- 85
2020-04-06 16:00:00 16.1 4 Sudeste 9 Sudeste 0 -- -- 83
2020-04-06 15:00:00 15.8 3 Sudeste 11 Sudoeste 0 -- -- 85
2020-04-06 14:00:00 16.4 5 Sur 12 Sudeste 0 -- -- 83
2020-04-06 13:00:00 16.3 6 Sudeste 13 Sudeste 0 -- -- 82
2020-04-06 12:00:00 15.8 3 Sudeste 8 Sudeste 0 -- -- 85
2020-04-06 11:00:00 15.6 3 Sur 7 Sudeste 0 -- -- 87
2020-04-06 10:00:00 14.8 3 Sur 4 Sudoeste 0 -- -- 85
2020-04-06 09:00:00 13 3 Nordeste 10 Norte 0 -- -- 91
2020-04-06 08:00:00 12.6 7 Norte 12 Norte 0 -- -- 91
2020-04-06 07:00:00 12.8 6 Norte 8 Norte 0 -- -- 91
2020-04-06 06:00:00 12.4 4 Norte 9 Norte 0 -- -- 92
2020-04-06 05:00:00 12.6 5 Norte 9 Norte 0 -- -- 91
2020-04-06 04:00:00 13.4 6 Norte 8 Norte 0 -- -- 89
2020-04-06 03:00:00 14.3 0 Calma 3 Oeste 0 -- -- 90
2020-04-06 02:00:00 14.5 0 Calma 4 Sur 0 -- -- 89
2020-04-06 01:00:00 14.7 0 Calma 3 Este 0 -- -- 87
2020-04-06 00:00:00 14.6 0 Calma 4 Sudeste 0 -- -- 87
2020-04-05 23:00:00 14.7 0 Calma 7 Sudeste 0 -- -- 86
2020-04-05 22:00:00 14.9 0 Calma 5 Este 0 -- -- 87
2020-04-05 21:00:00 15 3 Sur 7 Sudeste 0 -- -- 85
2020-04-05 20:00:00 15.2 2 Sur 9 Sur 0 -- -- 83
2020-04-05 19:00:00 15.7 4 Sur 9 Sudoeste 0 -- -- 82
2020-04-05 18:00:00 16.7 5 Sur 15 Sur 0 -- -- 77
2020-04-05 17:00:00 18.3 9 Sur 20 Sur 0 -- -- 68
2020-04-05 16:00:00 18.2 6 Sur 17 Sudeste 0 -- -- 69
2020-04-05 15:00:00 17.5 8 Sudeste 17 Sudeste 0 -- -- 71
2020-04-05 14:00:00 18.2 6 Sur 16 Sur 0 -- -- 64
2020-04-05 13:00:00 17.7 7 Sur 16 Sur 0 -- -- 66
2020-04-05 12:00:00 16.7 6 Sur 14 Sur 0 -- -- 67
2020-04-05 11:00:00 16.3 5 Sur 10 Sudoeste 0 -- -- 69
2020-04-05 10:00:00 14.8 4 Sur 8 Sudoeste 0 -- -- 75
2020-04-05 09:00:00 13 0 Calma 9 Oeste 0 -- -- 87
2020-04-05 08:00:00 12.5 5 Noroeste 10 Noroeste 0 -- -- 87
2020-04-05 07:00:00 12.1 5 Norte 11 Norte 0 -- -- 86
2020-04-05 06:00:00 12.2 5 Norte 13 Norte 0 -- -- 87
2020-04-05 05:00:00 12.2 8 Norte 14 Norte 0 -- -- 86
2020-04-05 04:00:00 12.2 3 Noroeste 14 Norte 0 -- -- 87
2020-04-05 03:00:00 12.5 9 Norte 13 Norte 0 -- -- 88
2020-04-05 02:00:00 12.7 5 Norte 13 Norte 0 -- -- 86
2020-04-05 01:00:00 13.2 5 Nordeste 10 Norte 0 -- -- 81
2020-04-05 00:00:00 13.6 6 Norte 9 Norte 0 -- -- 81
2020-04-04 23:00:00 14.9 4 Noroeste 13 Noroeste 0 -- -- 77
2020-04-04 22:00:00 15.1 3 Oeste 12 Oeste 0 -- -- 75
2020-04-04 21:00:00 15.5 6 Noroeste 20 Sudoeste 0 -- -- 73
2020-04-04 20:00:00 16.9 8 Oeste 25 Oeste 0 -- -- 59
2020-04-04 19:00:00 17.8 8 Oeste 45 Este 0 -- -- 49
2020-04-04 18:00:00 17.5 26 Nordeste 56 Este 0 -- -- 42
2020-04-04 17:00:00 16.2 22 Nordeste 44 Nordeste 0 -- -- 61
2020-04-04 16:00:00 17.3 8 Sudeste 31 Sudeste 0 -- -- 65
2020-04-04 15:00:00 18.4 14 Sudeste 37 Este 0 -- -- 56
2020-04-04 14:00:00 19.4 15 Sudeste 35 Este 0 -- -- 50
2020-04-04 13:00:00 20.4 14 Este 38 Nordeste 0 -- -- 40
2020-04-04 12:00:00 18.3 15 Este 41 Este 0 -- -- 41
2020-04-04 11:00:00 17.9 11 Sudeste 32 Sudeste 0 -- -- 51
2020-04-04 10:00:00 17.4 12 Sudeste 37 Este 0 -- -- 43
2020-04-04 09:00:00 16.2 16 Este 39 Sudeste 0 -- -- 42
2020-04-04 08:00:00 16.2 17 Nordeste 45 Este 0 -- -- 42
2020-04-04 07:00:00 15.9 15 Nordeste 38 Este 0 -- -- 44
2020-04-04 06:00:00 15.8 13 Nordeste 38 Nordeste 0 -- -- 46
2020-04-04 05:00:00 15.6 10 Este 35 Este 0 -- -- 47
2020-04-04 04:00:00 15.8 13 Este 30 Nordeste 0 -- -- 44
2020-04-04 03:00:00 14.7 7 Este 34 Nordeste 0 -- -- 52
2020-04-04 02:00:00 14.8 8 Este 30 Este 0 -- -- 53
2020-04-04 01:00:00 12.9 6 Este 19 Este 0 -- -- 82
2020-04-04 00:00:00 12.4 2 Sudeste 9 Nordeste 0 -- -- 86
2020-04-03 23:00:00 11.8 4 Nordeste 12 Norte 0 -- -- 83
2020-04-03 22:00:00 12.4 3 Norte 8 Norte 0 -- -- 82
2020-04-03 21:00:00 13.9 4 Este 18 Sudeste 0 -- -- 76
2020-04-03 20:00:00 15.6 6 Sudeste 19 Sudeste 0 -- -- 69
2020-04-03 19:00:00 17.4 6 Sudeste 25 Sudeste 0 -- -- 67
2020-04-03 18:00:00 18 7 Sudeste 20 Sudeste 0 -- -- 67
2020-04-03 17:00:00 18.4 9 Sudeste 24 Sudeste 0 -- -- 57
2020-04-03 16:00:00 18.3 9 Sudeste 26 Sudeste 0 -- -- 59
2020-04-03 15:00:00 18.4 9 Sudeste 27 Sudeste 0 -- -- 65
2020-04-03 14:00:00 17.7 11 Sudeste 26 Sudeste 0 -- -- 69
2020-04-03 13:00:00 16.5 14 Sudeste 28 Sudeste 0 -- -- 71
2020-04-03 12:00:00 16.5 11 Sudeste 26 Este 0.2 -- -- 70
2020-04-03 11:00:00 15.4 5 Sudeste 12 Sudeste 0 -- -- 65
2020-04-03 10:00:00 14 2 Sudeste 9 Norte 0 -- -- 68
2020-04-03 09:00:00 11.6 6 Norte 15 Norte 0 -- -- 74
2020-04-03 08:00:00 10.7 9 Norte 15 Norte 0 -- -- 76
2020-04-03 07:00:00 11.2 10 Norte 14 Norte 0 -- -- 72
2020-04-03 06:00:00 11.2 4 Norte 16 Nordeste 0 -- -- 74
2020-04-03 05:00:00 11.2 6 Noroeste 16 Norte 0 -- -- 73
2020-04-03 04:00:00 11.2 10 Norte 15 Norte 0 -- -- 74
2020-04-03 03:00:00 12 10 Norte 17 Nordeste 0 -- -- 73
2020-04-03 02:00:00 11.7 8 Nordeste 17 Nordeste 0 -- -- 76
2020-04-03 01:00:00 11.7 4 Norte 14 Norte 0 -- -- 74
2020-04-03 00:00:00 11.5 7 Nordeste 15 Norte 0 -- -- 76
2020-04-02 23:00:00 12.4 8 Norte 27 Oeste 0 -- -- 69
2020-04-02 22:00:00 13 9 Oeste 25 Oeste 0 -- -- 66
2020-04-02 21:00:00 12.1 3 Noroeste 8 Oeste 0 -- -- 79
2020-04-02 20:00:00 13 3 Sudoeste 16 Sudoeste 0 -- -- 80
2020-04-02 19:00:00 12.2 6 Sudoeste 16 Oeste 0 -- -- 83
2020-04-02 18:00:00 11.3 7 Noroeste 22 Norte 0.4 -- -- 85
2020-04-02 17:00:00 8.2 14 Norte 24 Norte 5.6 -- -- 90
2020-04-02 16:00:00 11.1 11 Noroeste 24 Noroeste 1 -- -- 80
2020-04-02 15:00:00 14.5 8 Sur 19 Sur 0 -- -- 74
2020-04-02 14:00:00 12.4 7 Sur 17 Este 0 -- -- 86
2020-04-02 13:00:00 12.7 8 Sudeste 21 Este 0 -- -- 81
2020-04-02 12:00:00 13.4 5 Sudeste 14 Sudeste 0 -- -- 87
2020-04-02 11:00:00 11.1 4 Sudeste 21 Nordeste 0 -- -- 96
2020-04-02 10:00:00 10.2 9 Noroeste 17 Norte 3 -- -- 94
2020-04-02 09:00:00 10 6 Norte 19 Noroeste 9.6 -- -- 94
2020-04-02 08:00:00 11.5 5 Sudeste 18 Este 8.4 -- -- 93
2020-04-02 07:00:00 12 5 Norte 11 Norte 0 -- -- 84
2020-04-02 06:00:00 11.8 3 Noroeste 8 Norte 0 -- -- 80
2020-04-02 05:00:00 11.4 2 Norte 10 Norte 0 -- -- 70
2020-04-02 04:00:00 11.8 5 Noroeste 14 Oeste 0 -- -- 68
2020-04-02 03:00:00 11.7 2 Noroeste 13 Noroeste 0 -- -- 70
2020-04-02 02:00:00 12.4 6 Noroeste 14 Oeste 0 -- -- 67
2020-04-02 01:00:00 12.9 5 Noroeste 17 Noroeste 0 -- -- 66
2020-04-02 00:00:00 13 7 Noroeste 15 Norte 0 -- -- 68
2020-04-01 23:00:00 12.8 10 Norte 18 Norte 0 -- -- 81
2020-04-01 22:00:00 13.9 2 Noroeste 18 Oeste 0 -- -- 80
2020-04-01 21:00:00 14.6 5 Oeste 14 Sudoeste 0 -- -- 75
2020-04-01 20:00:00 16.1 5 Sudoeste 26 Sudoeste 0 -- -- 71
2020-04-01 19:00:00 15.5 11 Sudoeste 21 Sudoeste 0 -- -- 77
2020-04-01 18:00:00 17.3 11 Sudoeste 27 Sudoeste 0 -- -- 67
2020-04-01 17:00:00 18.3 9 Sudoeste 22 Sudoeste 0 -- -- 58
2020-04-01 16:00:00 17 13 Sudoeste 27 Oeste 0 -- -- 75
2020-04-01 15:00:00 16.4 12 Sudoeste 24 Sudoeste 0 -- -- 77
2020-04-01 14:00:00 17.6 12 Sudoeste 27 Sudoeste 0 -- -- 76
2020-04-01 13:00:00 16.3 13 Sudoeste 25 Sudoeste 0 -- -- 79
2020-04-01 12:00:00 16 7 Sur 14 Sur 0 -- -- 84
2020-04-01 11:00:00 14.9 4 Sur 8 Sur 0 -- -- 90
2020-04-01 10:00:00 13.5 0 Calma 8 Norte 0 -- -- 97
2020-04-01 09:00:00 11.9 6 Norte 10 Norte 0 -- -- 98
2020-04-01 08:00:00 11.6 4 Norte 14 Norte 0 -- -- 98
2020-04-01 07:00:00 11.8 9 Norte 13 Norte 2.2 -- -- 98
2020-04-01 06:00:00 12 4 Norte 8 Norte 0.2 -- -- 98
2020-04-01 05:00:00 12.1 5 Norte 10 Norte 0 -- -- 98
2020-04-01 04:00:00 12 5 Norte 10 Norte 0 -- -- 97
2020-04-01 03:00:00 12 2 Noroeste 10 Nordeste 0.2 -- -- 97
2020-04-01 02:00:00 12.6 4 Noroeste 8 Norte 0.2 -- -- 97
2020-04-01 01:00:00 12.8 2 Noroeste 12 Oeste 0.2 -- -- 97
2020-04-01 00:00:00 13.2 3 Noroeste 15 Noroeste 13.4 -- -- 95
2020-03-31 23:00:00 13.6 5 Norte 11 Noroeste 0 -- -- 91
2020-03-31 22:00:00 13.9 8 Noroeste 14 Noroeste 0 -- -- 90
2020-03-31 21:00:00 13.7 7 Noroeste 15 Noroeste 0 -- -- 92
2020-03-31 20:00:00 13.4 8 Noroeste 17 Norte 0.2 -- -- 95
2020-03-31 19:00:00 13.4 7 Noroeste 14 Noroeste 0.8 -- -- 95
2020-03-31 18:00:00 13.6 4 Sudeste 19 Nordeste 3.2 -- -- 94
2020-03-31 17:00:00 13.3 7 Nordeste 24 Norte 6.8 -- -- 92
2020-03-31 16:00:00 13.8 12 Nordeste 30 Nordeste 0.8 -- -- 89
2020-03-31 15:00:00 14.4 13 Nordeste 28 Nordeste 0.2 -- -- 83
2020-03-31 14:00:00 14.7 9 Sudeste 19 Este 0.2 -- -- 95
2020-03-31 13:00:00 12.5 6 Este 19 Nordeste 4.2 -- -- 95
2020-03-31 12:00:00 11.7 10 Norte 29 Norte 10 -- -- 91
2020-03-31 11:00:00 12 12 Nordeste 27 Nordeste 1.8 -- -- 89
2020-03-31 10:00:00 12.6 15 Nordeste 28 Este 0.2 -- -- 85
2020-03-31 09:00:00 12.2 11 Este 31 Este 0.6 -- -- 88
2020-03-31 08:00:00 12.3 14 Nordeste 29 Este 0.4 -- -- 86
2020-03-31 07:00:00 12.3 16 Nordeste 35 Nordeste 0 -- -- 88
2020-03-31 06:00:00 11.6 12 Nordeste 30 Sudeste 3.4 -- -- 94
2020-03-31 05:00:00 11.7 7 Nordeste 13 Nordeste 8 -- -- 95
2020-03-31 04:00:00 12.5 4 Nordeste 14 Nordeste 2.6 -- -- 93
2020-03-31 03:00:00 12.9 6 Norte 21 Nordeste 0.2 -- -- 81
2020-03-31 02:00:00 13.5 2 Nordeste 10 Este 0 -- -- 81
2020-03-31 01:00:00 13.4 5 Este 10 Sudeste 0 -- -- 83
2020-03-31 00:00:00 13.4 2 Sur 12 Norte 0 -- -- 81
2020-03-30 23:00:00 13.4 2 Noroeste 5 Oeste 0 -- -- 87
2020-03-30 22:00:00 14 0 Calma 8 Norte 0 -- -- 82
2020-03-30 21:00:00 14.1 5 Norte 7 Norte 0 -- -- 85
2020-03-30 20:00:00 15.2 0 Calma 6 Sur 0 -- -- 80
2020-03-30 19:00:00 15.8 0 Calma 8 Sur 0 -- -- 77
2020-03-30 18:00:00 16.3 3 Sudoeste 11 Sur 0 -- -- 74
2020-03-30 17:00:00 16.3 4 Sudoeste 10 Sudoeste 0 -- -- 74
2020-03-30 16:00:00 16.9 6 Sur 12 Sudoeste 0 -- -- 75
2020-03-30 15:00:00 16.7 6 Sudoeste 14 Sur 0 -- -- 77
2020-03-30 14:00:00 17.4 6 Sur 15 Sudoeste 0 -- -- 75
2020-03-30 13:00:00 16.4 8 Sudoeste 14 Sudoeste 0 -- -- 79
2020-03-30 12:00:00 16.1 5 Sudoeste 12 Sur 0 -- -- 76
2020-03-30 11:00:00 15.3 4 Sur 9 Sudeste 0 -- -- 76
2020-03-30 10:00:00 13.6 3 Sur 6 Sudeste 0 -- -- 84
2020-03-30 09:00:00 11.9 5 Nordeste 9 Norte 0 -- -- 85
2020-03-30 08:00:00 11.6 0 Calma 6 Noroeste 0 -- -- 82
2020-03-30 07:00:00 12.1 0 Calma 9 Norte 0 -- -- 82
2020-03-30 06:00:00 12.4 0 Calma 6 Norte 0 -- -- 86
2020-03-30 05:00:00 12.4 0 Calma 5 Norte 0 -- -- 84
2020-03-30 04:00:00 12.3 0 Calma 6 Norte 0 -- -- 84
2020-03-30 03:00:00 12.3 4 Norte 8 Norte 0 -- -- 85
2020-03-30 02:00:00 12.5 5 Noroeste 12 Noroeste 0 -- -- 86
2020-03-30 01:00:00 12.2 4 Norte 10 Norte 0 -- -- 87
2020-03-30 00:00:00 13 5 Noroeste 12 Noroeste 0 -- -- 86
2020-03-29 23:00:00 12.8 0 Calma 10 Norte 0 -- -- 87
2020-03-29 22:00:00 13.3 5 Norte 10 Norte 0 -- -- 85
2020-03-29 21:00:00 14.2 0 Calma 5 Norte 0 -- -- 82
2020-03-29 20:00:00 15 0 Calma 9 Sudoeste 0 -- -- 76
2020-03-29 19:00:00 15.8 5 Sur 13 Sur 0 -- -- 71
2020-03-29 18:00:00 16.4 8 Sudoeste 15 Sudoeste 0 -- -- 68
2020-03-29 17:00:00 16.9 8 Sudoeste 18 Sur 0 -- -- 67
2020-03-29 16:00:00 16.8 10 Sur 20 Sur 0 -- -- 66
2020-03-29 15:00:00 17.1 10 Sudoeste 18 Sudoeste 0 -- -- 71
2020-03-29 14:00:00 17.1 6 Sur 16 Sur 0 -- -- 70
2020-03-29 13:00:00 16.5 4 Sur 13 Sudoeste 0 -- -- 68
2020-03-29 12:00:00 15.6 4 Sudeste 10 Sur 0 -- -- 66
2020-03-29 11:00:00 14.7 4 Sur 8 Sudoeste 0 -- -- 69
2020-03-29 10:00:00 13.2 0 Calma 9 Norte 0 -- -- 71
2020-03-29 09:00:00 11.2 8 Norte 14 Norte 0 -- -- 76
2020-03-29 08:00:00 10.7 8 Norte 14 Norte 0 -- -- 76
2020-03-29 07:00:00 10.8 10 Norte 15 Norte 0 -- -- 76
2020-03-29 06:00:00 11.1 10 Norte 15 Norte 0 -- -- 76
2020-03-29 05:00:00 10.6 9 Norte 12 Norte 0 -- -- 84
2020-03-29 03:00:00 12 5 Norte 7 Norte 0 -- -- 80
2020-03-29 01:00:00 12.7 0 Calma 8 Nordeste 0 -- -- 79
2020-03-29 00:00:00 12.9 4 Nordeste 11 Nordeste 0 -- -- 74
2020-03-28 23:00:00 12.8 3 Nordeste 12 Norte 0 -- -- 76
2020-03-28 22:00:00 12.9 4 Nordeste 10 Nordeste 0 -- -- 77
2020-03-28 21:00:00 12.9 4 Nordeste 9 Norte 0 -- -- 80
2020-03-28 20:00:00 13 3 Este 11 Este 0 -- -- 79
2020-03-28 19:00:00 13.2 5 Sudeste 18 Sudeste 0 -- -- 80
2020-03-28 18:00:00 13.6 8 Sudeste 18 Sudeste 0 -- -- 77
2020-03-28 17:00:00 13.9 6 Sudeste 20 Sudeste 0 -- -- 72
2020-03-28 16:00:00 14.1 7 Sudeste 20 Sudeste 0 -- -- 70
2020-03-28 15:00:00 15 8 Sudeste 24 Sudeste 0 -- -- 68
2020-03-28 14:00:00 14.1 10 Sudeste 26 Sudeste 0 -- -- 71
2020-03-28 13:00:00 14.3 8 Sudeste 24 Sudeste 0 -- -- 70
2020-03-28 12:00:00 13.9 11 Sudeste 22 Este 0 -- -- 79
2020-03-28 11:00:00 13.9 9 Este 24 Este 0 -- -- 76
2020-03-28 10:00:00 13.8 8 Este 23 Este 0.2 -- -- 76
2020-03-28 09:00:00 12.2 7 Nordeste 20 Este 0 -- -- 84
2020-03-28 08:00:00 12 5 Este 15 Este 0 -- -- 82
2020-03-28 07:00:00 11.5 4 Nordeste 13 Nordeste 0 -- -- 84
2020-03-28 06:00:00 11.9 3 Sudeste 9 Este 0 -- -- 83
2020-03-28 05:00:00 12.1 2 Este 18 Nordeste 0 -- -- 81
2020-03-28 04:00:00 12.1 8 Nordeste 16 Norte 0 -- -- 84
2020-03-28 03:00:00 12.1 5 Nordeste 16 Nordeste 0 -- -- 88
2020-03-28 02:00:00 12.2 5 Nordeste 15 Nordeste 0 -- -- 92
2020-03-28 01:00:00 12.2 6 Nordeste 13 Nordeste 1.6 -- -- 92
2020-03-28 00:00:00 13.1 6 Nordeste 14 Nordeste 0 -- -- 84
2020-03-27 23:00:00 13 4 Este 13 Este 0 -- -- 82
2020-03-27 22:00:00 12.1 4 Norte 7 Nordeste 0 -- -- 85
2020-03-27 21:00:00 12.6 3 Nordeste 7 Noroeste 0 -- -- 83
2020-03-27 20:00:00 12.4 3 Norte 7 Norte 0 -- -- 83
2020-03-27 19:00:00 14 4 Sudeste 11 Este 0 -- -- 75
2020-03-27 18:00:00 15.2 6 Sudeste 17 Sudeste 0 -- -- 70
2020-03-27 17:00:00 15.2 6 Sudeste 21 Sudeste 0 -- -- 70
2020-03-27 16:00:00 16 7 Sudeste 18 Este 0 -- -- 67
2020-03-27 15:00:00 14.5 8 Sudeste 23 Sudeste 0 -- -- 68
2020-03-27 14:00:00 14.4 12 Sudeste 25 Este 0 -- -- 68
2020-03-27 13:00:00 15.1 9 Sudeste 27 Sudeste 0 -- -- 64
2020-03-27 12:00:00 14.7 12 Sudeste 32 Este 0 -- -- 67
2020-03-27 11:00:00 14.2 7 Este 27 Este 0 -- -- 69
2020-03-27 10:00:00 13.9 8 Este 28 Este 0 -- -- 69
2020-03-27 09:00:00 13.1 7 Este 23 Este 0 -- -- 71
2020-03-27 08:00:00 12.6 8 Este 29 Este 0 -- -- 72
2020-03-27 07:00:00 12.5 5 Este 25 Este 0 -- -- 76
2020-03-27 06:00:00 12.7 7 Este 30 Este 0 -- -- 77
2020-03-27 05:00:00 13.1 8 Este 26 Este 0 -- -- 77
2020-03-27 04:00:00 13.4 9 Sudeste 18 Sudeste 0 -- -- 80
2020-03-27 03:00:00 13.9 7 Este 27 Sudeste 0 -- -- 80
2020-03-27 02:00:00 15.5 8 Este 26 Este 0 -- -- 68
2020-03-27 01:00:00 15.8 12 Norte 19 Oeste 0 -- -- 60
2020-03-27 00:00:00 16.3 10 Noroeste 32 Norte 0 -- -- 59
2020-03-26 23:00:00 16.6 10 Noroeste 20 Oeste 0 -- -- 60
2020-03-26 22:00:00 17.2 5 Oeste 18 Oeste 0 -- -- 58
2020-03-26 21:00:00 18.2 6 Oeste 17 Oeste 0 -- -- 54
2020-03-26 20:00:00 18.7 5 Oeste 22 Oeste 0 -- -- 49
2020-03-26 19:00:00 20.7 8 Oeste 22 Sudoeste 0 -- -- 45
2020-03-26 18:00:00 19.9 6 Sudoeste 26 Oeste 0 -- -- 68
2020-03-26 17:00:00 20.8 8 Sudoeste 31 Sudoeste 0 -- -- 63
2020-03-26 16:00:00 20.2 16 Sudoeste 39 Sudoeste 0 -- -- 62
2020-03-26 15:00:00 20 14 Sudoeste 36 Oeste 0 -- -- 63
2020-03-26 14:00:00 21.1 14 Sudoeste 31 Sur 0 -- -- 61
2020-03-26 13:00:00 20.8 6 Noroeste 23 Norte 0 -- -- 50
2020-03-26 12:00:00 17.3 10 Sudoeste 26 Sur 0 -- -- 76
2020-03-26 11:00:00 16.3 8 Sudoeste 19 Sudoeste 0 -- -- 80
2020-03-26 10:00:00 15 9 Sudoeste 20 Sudoeste 0 -- -- 79
2020-03-26 09:00:00 13.2 5 Sudoeste 15 Oeste 0 -- -- 83
2020-03-26 08:00:00 11.9 8 Oeste 17 Oeste 0 -- -- 85
2020-03-26 07:00:00 10.4 5 Noroeste 11 Norte 0 -- -- 90
2020-03-26 06:00:00 10.1 3 Este 12 Norte 0 -- -- 91
2020-03-26 05:00:00 9.7 3 Norte 11 Norte 0 -- -- 90
2020-03-26 04:00:00 9.8 4 Norte 11 Nordeste 0 -- -- 89
2020-03-26 03:00:00 10.1 4 Noroeste 11 Norte 0 -- -- 88
2020-03-26 02:00:00 10.6 5 Noroeste 12 Norte 0 -- -- 85
2020-03-26 01:00:00 11.3 4 Noroeste 11 Noroeste 0 -- -- 83
2020-03-26 00:00:00 12.2 6 Noroeste 14 Noroeste 0 -- -- 78
2020-03-25 23:00:00 12.2 5 Noroeste 15 Noroeste 0 -- -- 79
2020-03-25 22:00:00 12.1 8 Noroeste 13 Noroeste 0 -- -- 78
2020-03-25 21:00:00 11.9 5 Noroeste 13 Noroeste 0 -- -- 82
2020-03-25 20:00:00 12 6 Noroeste 11 Noroeste 0 -- -- 81
2020-03-25 19:00:00 12.3 2 Oeste 11 Sudoeste 0 -- -- 82
2020-03-25 18:00:00 12.6 5 Sudoeste 14 Sudoeste 0 -- -- 80
2020-03-25 17:00:00 12.8 2 Sudeste 6 Sudoeste 0 -- -- 83
2020-03-25 16:00:00 12.6 0 Calma 9 Sudoeste 0 -- -- 83
2020-03-25 15:00:00 12.3 3 Sudoeste 6 Nordeste 0 -- -- 89
2020-03-25 14:00:00 11.2 4 Este 8 Norte 0.2 -- -- 94
2020-03-25 13:00:00 10.5 5 Norte 13 Norte 0.4 -- -- 94
2020-03-25 12:00:00 10.5 6 Noroeste 14 Norte 0.4 -- -- 94
2020-03-25 11:00:00 10.2 5 Nordeste 13 Sudeste 2.8 -- -- 96
2020-03-25 10:00:00 10.5 4 Este 18 Sudeste 0.8 -- -- 96
2020-03-25 09:00:00 11.5 0 Calma 10 Noroeste 0.2 -- -- 96
2020-03-25 08:00:00 11.4 5 Oeste 23 Noroeste 2.4 -- -- 95
2020-03-25 07:00:00 11.5 9 Norte 17 Norte 0.8 -- -- 95
2020-03-25 06:00:00 11.4 9 Norte 14 Norte 2.2 -- -- 96
2020-03-25 05:00:00 11.5 10 Norte 14 Norte 8.4 -- -- 96
2020-03-25 04:00:00 13 4 Oeste 10 Noroeste 7 -- -- 95
2020-03-25 03:00:00 13.3 2 Oeste 8 Norte 0 -- -- 94
2020-03-25 02:00:00 13.2 5 Norte 8 Norte 0 -- -- 95
2020-03-25 01:00:00 13.2 0 Calma 10 Nordeste 0 -- -- 94
2020-03-25 00:00:00 13.4 5 Norte 9 Nordeste 0.4 -- -- 94
2020-03-24 23:00:00 13.9 3 Nordeste 7 Norte 0.2 -- -- 90
2020-03-24 22:00:00 13.9 0 Calma 12 Noroeste 0 -- -- 89
2020-03-24 21:00:00 14.3 5 Noroeste 16 Noroeste 0 -- -- 84
2020-03-24 20:00:00 14.2 8 Noroeste 16 Noroeste 0 -- -- 84
2020-03-24 19:00:00 14.5 5 Norte 17 Noroeste 1.6 -- -- 91
2020-03-24 18:00:00 16.4 10 Noroeste 19 Oeste 0 -- -- 76
2020-03-24 17:00:00 17.9 8 Oeste 19 Oeste 0 -- -- 64
2020-03-24 16:00:00 20 10 Sur 19 Sur 0 -- -- 54
2020-03-24 15:00:00 19.9 10 Sur 19 Sudoeste 0 -- -- 55
2020-03-24 14:00:00 18.9 6 Sur 13 Sur 0 -- -- 68
2020-03-24 13:00:00 17.2 5 Sudeste 10 Sur 0 -- -- 70
2020-03-24 12:00:00 16.8 3 Sur 8 Sudeste 0 -- -- 72
2020-03-24 11:00:00 16.9 4 Sudoeste 10 Sudoeste 0 -- -- 64
2020-03-24 10:00:00 15.1 3 Norte 12 Norte 0 -- -- 78
2020-03-24 09:00:00 13.6 6 Norte 11 Norte 0 -- -- 82
2020-03-24 08:00:00 12.4 3 Norte 14 Norte 0 -- -- 89
2020-03-24 07:00:00 11.8 6 Norte 17 Norte 1.4 -- -- 92
2020-03-24 06:00:00 12.9 5 Nordeste 10 Norte 1 -- -- 80
2020-03-24 05:00:00 13.8 8 Norte 18 Norte 0 -- -- 70
2020-03-24 04:00:00 12.1 10 Norte 14 Norte 0 -- -- 80
2020-03-24 03:00:00 11.8 3 Norte 14 Nordeste 0 -- -- 86
2020-03-24 02:00:00 12.3 3 Sudeste 22 Nordeste 0.2 -- -- 84
2020-03-24 01:00:00 12.1 13 Norte 21 Norte 1.2 -- -- 87
2020-03-24 00:00:00 13.1 9 Norte 15 Norte 0 -- -- 75
2020-03-23 23:00:00 12.8 4 Norte 13 Norte 0 -- -- 76
2020-03-23 22:00:00 12.6 4 Norte 13 Norte 0 -- -- 78
2020-03-23 21:00:00 12.3 5 Norte 13 Nordeste 0 -- -- 83
2020-03-23 20:00:00 13 4 Norte 20 Norte 0 -- -- 80
2020-03-23 19:00:00 13.1 12 Noroeste 21 Noroeste 0 -- -- 78
2020-03-23 18:00:00 12.7 6 Nordeste 23 Nordeste 0.6 -- -- 88
2020-03-23 17:00:00 12.7 7 Este 29 Este 1.2 -- -- 88
2020-03-23 16:00:00 13.9 11 Sudeste 24 Sur 0 -- -- 75
2020-03-23 15:00:00 14.6 4 Sudeste 12 Sur 0 -- -- 76
2020-03-23 14:00:00 15.2 4 Sur 13 Este 0 -- -- 74
2020-03-23 13:00:00 14.7 5 Sudeste 14 Sudeste 0 -- -- 73
2020-03-23 12:00:00 14.6 4 Sudeste 17 Sudeste 0 -- -- 74
2020-03-23 11:00:00 14.7 7 Sudeste 22 Sudeste 0 -- -- 71
2020-03-23 10:00:00 12.9 0 Calma 10 Oeste 0 -- -- 78
2020-03-23 09:00:00 12.2 3 Oeste 9 Oeste 0 -- -- 76
2020-03-23 08:00:00 11.5 7 Nordeste 19 Nordeste 0 -- -- 77
2020-03-23 07:00:00 9.9 6 Nordeste 13 Norte 0 -- -- 85
2020-03-23 06:00:00 9.5 9 Norte 14 Norte 0 -- -- 81
2020-03-23 05:00:00 9.8 9 Norte 13 Norte 0 -- -- 81
2020-03-23 04:00:00 10.1 6 Norte 12 Norte 0 -- -- 85
2020-03-23 03:00:00 10.1 6 Norte 12 Norte 0 -- -- 87
2020-03-23 02:00:00 10.1 8 Norte 11 Norte 0 -- -- 87
2020-03-23 01:00:00 10.4 3 Nordeste 10 Nordeste 0 -- -- 87
2020-03-23 00:00:00 10.8 8 Norte 11 Norte 0 -- -- 85
2020-03-22 23:00:00 11.3 6 Norte 10 Norte 0 -- -- 89
2020-03-22 22:00:00 11.6 2 Sudeste 11 Este 0 -- -- 86
2020-03-22 21:00:00 11.4 3 Noroeste 9 Noroeste 0 -- -- 88
2020-03-22 20:00:00 12.1 2 Norte 5 Noroeste 0 -- -- 86
2020-03-22 19:00:00 13.9 3 Sudoeste 14 Sur 0 -- -- 78
2020-03-22 18:00:00 14.2 5 Sur 14 Sur 0 -- -- 78
2020-03-22 17:00:00 15.8 6 Sur 14 Sudeste 0 -- -- 71
2020-03-22 16:00:00 15 6 Sudeste 17 Sur 0 -- -- 72
2020-03-22 15:00:00 15.3 8 Sudeste 17 Sudeste 0 -- -- 76
2020-03-22 14:00:00 14.4 6 Sudeste 18 Sudeste 0 -- -- 76
2020-03-22 13:00:00 14.7 9 Sur 20 Sudeste 0 -- -- 72
2020-03-22 12:00:00 14.4 8 Sudeste 16 Sudeste 0 -- -- 74
2020-03-22 11:00:00 13 6 Sur 12 Sur 0 -- -- 82
2020-03-22 10:00:00 10.7 2 Sudoeste 6 Noroeste 0 -- -- 89
2020-03-22 09:00:00 9.9 3 Oeste 5 Noroeste 0 -- -- 92
2020-03-22 08:00:00 8.9 5 Norte 9 Norte 0 -- -- 94
2020-03-22 07:00:00 8.7 7 Norte 12 Norte 0 -- -- 95
2020-03-22 06:00:00 9.1 2 Norte 13 Norte 1.2 -- -- 96
2020-03-22 05:00:00 8.9 6 Norte 14 Noroeste 3.6 -- -- 94
2020-03-22 04:00:00 9.4 6 Norte 17 Noroeste 3.8 -- -- 91
2020-03-22 03:00:00 10.2 4 Este 14 Nordeste 0.8 -- -- 90
2020-03-22 02:00:00 10.3 5 Norte 9 Norte 0.8 -- -- 94
2020-03-22 01:00:00 10.7 4 Sudeste 15 Nordeste 0.2 -- -- 92
2020-03-22 00:00:00 10.7 8 Nordeste 15 Este 0.8 -- -- 94
2020-03-21 23:00:00 10.8 4 Nordeste 13 Este 0 -- -- 95
2020-03-21 22:00:00 10.8 6 Noroeste 13 Norte 1 -- -- 94
2020-03-21 21:00:00 11 5 Noroeste 17 Norte 0.6 -- -- 92
2020-03-21 20:00:00 10.8 10 Noroeste 20 Noroeste 3.6 -- -- 91
2020-03-21 19:00:00 11.3 8 Noroeste 31 Noroeste 2.2 -- -- 90
2020-03-21 18:00:00 12.5 12 Noroeste 27 Sudoeste 0.4 -- -- 85
2020-03-21 17:00:00 15.5 9 Sudoeste 26 Sur 0 -- -- 65
2020-03-21 16:00:00 18.2 9 Sudoeste 28 Sudoeste 0 -- -- 51
2020-03-21 15:00:00 17.4 12 Sudoeste 31 Sudoeste 0 -- -- 62
2020-03-21 14:00:00 16.9 15 Sudoeste 28 Sudoeste 0 -- -- 64
2020-03-21 13:00:00 16.3 14 Sudoeste 27 Sudoeste 0 -- -- 63
2020-03-21 12:00:00 15.6 12 Sudoeste 23 Sur 0 -- -- 78
2020-03-21 11:00:00 14.3 9 Sudoeste 14 Sudoeste 0 -- -- 84
2020-03-21 10:00:00 12.6 3 Sudoeste 8 Noroeste 0 -- -- 92
2020-03-21 09:00:00 11.6 2 Sudeste 8 Norte 0 -- -- 95
2020-03-21 08:00:00 11 2 Norte 9 Este 0 -- -- 94
2020-03-21 07:00:00 11 3 Oeste 45 Norte 1.6 -- -- 87
2020-03-21 06:00:00 10.9 20 Norte 36 Norte 10.4 -- -- 88
2020-03-21 05:00:00 13.3 8 Sur 24 Este 7.2 -- -- 95
2020-03-21 04:00:00 13.5 5 Sudeste 28 Este 0.8 -- -- 87
2020-03-21 03:00:00 15.2 8 Este 33 Este 0 -- -- 70
2020-03-21 02:00:00 14.5 8 Este 21 Este 0 -- -- 78
2020-03-21 01:00:00 14.8 6 Sudeste 29 Nordeste 0 -- -- 78
2020-03-21 00:00:00 15 12 Nordeste 26 Nordeste 0 -- -- 70
2020-03-20 23:00:00 14.6 9 Este 35 Este 0 -- -- 78
2020-03-20 22:00:00 14.5 8 Este 28 Este 0 -- -- 82
2020-03-20 21:00:00 14.5 13 Sudeste 33 Este 0 -- -- 85
2020-03-20 20:00:00 14.6 13 Sudeste 28 Este 0 -- -- 84
2020-03-20 19:00:00 15.2 5 Sudeste 18 Este 0 -- -- 82
2020-03-20 18:00:00 16.6 6 Sudeste 17 Sudeste 0 -- -- 77
2020-03-20 17:00:00 17.7 7 Sudeste 15 Sur 0 -- -- 69
2020-03-20 16:00:00 18.2 6 Sudeste 13 Sudeste 0 -- -- 65
2020-03-20 15:00:00 19.2 6 Sur 16 Sur 0 -- -- 59
2020-03-20 14:00:00 19.6 6 Sur 18 Oeste 0 -- -- 62
2020-03-20 13:00:00 17.2 6 Noroeste 17 Sur 0 -- -- 69
2020-03-20 12:00:00 17.3 8 Sur 19 Sur 0 -- -- 69
2020-03-20 11:00:00 17 9 Oeste 22 Oeste 0 -- -- 69
2020-03-20 10:00:00 15.3 9 Oeste 21 Sudoeste 0 -- -- 75
2020-03-20 09:00:00 14.3 7 Sudoeste 25 Oeste 0 -- -- 81
2020-03-20 08:00:00 13.8 7 Noroeste 14 Oeste 0 -- -- 82
2020-03-20 07:00:00 13.6 9 Noroeste 16 Noroeste 0 -- -- 84
2020-03-20 06:00:00 13.4 3 Nordeste 10 Norte 0 -- -- 88
2020-03-20 05:00:00 13.4 7 Norte 11 Norte 0 -- -- 80
2020-03-20 04:00:00 13.3 10 Norte 15 Norte 0 -- -- 82
2020-03-20 03:00:00 13.6 2 Nordeste 13 Noroeste 0 -- -- 84
2020-03-20 02:00:00 13.5 4 Norte 7 Norte 0 -- -- 85
2020-03-20 01:00:00 14.5 0 Calma 8 Noroeste 0 -- -- 83
2020-03-20 00:00:00 14.6 3 Noroeste 9 Sudoeste 0 -- -- 85
2020-03-19 23:00:00 14.5 5 Este 11 Este 0 -- -- 82
2020-03-19 22:00:00 14.1 5 Norte 9 Noroeste 0 -- -- 82
2020-03-19 21:00:00 14.7 4 Oeste 13 Oeste 0 -- -- 81
2020-03-19 20:00:00 15.2 4 Sudoeste 9 Sudoeste 0 -- -- 80
2020-03-19 19:00:00 15.5 2 Oeste 9 Sudoeste 0 -- -- 78
2020-03-19 18:00:00 16 5 Sur 9 Sudoeste 0 -- -- 76
2020-03-19 17:00:00 16.4 5 Sudoeste 12 Sur 0 -- -- 74
2020-03-19 16:00:00 16.6 4 Sur 13 Sur 0 -- -- 72
2020-03-19 15:00:00 16.8 2 Sudeste 13 Sur 0 -- -- 74
2020-03-19 14:00:00 18.2 6 Sur 21 Sur 0 -- -- 70
2020-03-19 13:00:00 18.5 9 Sur 21 Sur 0 -- -- 69
2020-03-19 12:00:00 17.4 9 Sudoeste 16 Sudoeste 0 -- -- 72
2020-03-19 11:00:00 16.2 3 Sur 8 Sur 0 -- -- 75
2020-03-19 10:00:00 15.4 2 Sudeste 7 Sudeste 0 -- -- 76
2020-03-19 09:00:00 14.2 3 Nordeste 10 Norte 0 -- -- 80
2020-03-19 08:00:00 12.7 6 Norte 9 Norte 0 -- -- 85
2020-03-19 07:00:00 13 3 Nordeste 10 Norte 0 -- -- 83
2020-03-19 06:00:00 12.9 6 Norte 9 Norte 0 -- -- 84
2020-03-19 05:00:00 13.1 4 Nordeste 8 Norte 0 -- -- 82
2020-03-19 04:00:00 13.6 4 Norte 11 Noroeste 0 -- -- 81
2020-03-19 03:00:00 14 8 Noroeste 15 Noroeste 0 -- -- 80
2020-03-19 02:00:00 14 6 Noroeste 13 Noroeste 0 -- -- 81
2020-03-19 01:00:00 14.1 6 Norte 12 Noroeste 0 -- -- 81
2020-03-19 00:00:00 13.8 3 Oeste 8 Noroeste 0 -- -- 80
2020-03-18 23:00:00 14.1 4 Oeste 8 Noroeste 0 -- -- 80
2020-03-18 22:00:00 14.3 2 Noroeste 8 Noroeste 0 -- -- 77
2020-03-18 21:00:00 15 4 Noroeste 8 Oeste 0 -- -- 75
2020-03-18 20:00:00 15.8 0 Calma 12 Este 0 -- -- 70
2020-03-18 19:00:00 16.9 7 Sudeste 25 Sudeste 0 -- -- 68
2020-03-18 18:00:00 18.4 12 Sudeste 28 Este 0 -- -- 62
2020-03-18 17:00:00 19.5 14 Sudeste 34 Sudeste 0 -- -- 58
2020-03-18 16:00:00 19.9 14 Sudeste 32 Sudeste 0 -- -- 57
2020-03-18 15:00:00 20 15 Sudeste 31 Sudeste 0 -- -- 57
2020-03-18 14:00:00 20.4 15 Sudeste 33 Sudeste 0 -- -- 57
2020-03-18 13:00:00 19.7 17 Sudeste 35 Este 0 -- -- 58
2020-03-18 12:00:00 19.4 13 Sudeste 37 Sudeste 0 -- -- 61
2020-03-18 11:00:00 18.5 14 Sudeste 32 Sudeste 0 -- -- 64
2020-03-18 10:00:00 18.3 9 Sudeste 20 Sudeste 0 -- -- 64
2020-03-18 09:00:00 17.1 3 Sudoeste 11 Oeste 0 -- -- 67
2020-03-18 08:00:00 15.9 9 Oeste 25 Sudeste 0 -- -- 72
2020-03-18 07:00:00 17.8 10 Sudeste 37 Este 0 -- -- 62
2020-03-18 06:00:00 20.5 15 Este 46 Este 0 -- -- 49
2020-03-18 05:00:00 19.3 12 Este 38 Este 0 -- -- 53
2020-03-18 04:00:00 20 16 Nordeste 37 Este 0 -- -- 47
2020-03-18 03:00:00 17 9 Este 32 Este 0 -- -- 62
2020-03-18 02:00:00 16.6 13 Este 41 Este 0 -- -- 70
2020-03-18 01:00:00 16.5 10 Este 30 Nordeste 0 -- -- 71
2020-03-18 00:00:00 15 5 Este 21 Este 0 -- -- 78
2020-03-17 23:00:00 13.6 0 Calma 8 Norte 0 -- -- 81
2020-03-17 22:00:00 13.4 3 Nordeste 10 Norte 0 -- -- 82
2020-03-17 21:00:00 13.5 6 Norte 15 Norte 0 -- -- 82
2020-03-17 20:00:00 14 5 Noroeste 10 Noroeste 0 -- -- 83
2020-03-17 19:00:00 15.1 4 Oeste 17 Sur 0 -- -- 81
2020-03-17 18:00:00 16.1 8 Sudeste 21 Sur 0 -- -- 79
2020-03-17 17:00:00 16.4 8 Sudeste 31 Este 0 -- -- 74
2020-03-17 16:00:00 15.9 17 Sudeste 33 Este 0 -- -- 70
2020-03-17 15:00:00 16.9 11 Este 36 Sudeste 0 -- -- 49
2020-03-17 14:00:00 16.5 18 Sudeste 37 Este 0 -- -- 51
2020-03-17 13:00:00 17.8 10 Sudeste 45 Sudeste 0 -- -- 42
2020-03-17 12:00:00 15.6 16 Sudeste 40 Sudeste 0 -- -- 48
2020-03-17 11:00:00 14.7 18 Sudeste 35 Este 0 -- -- 58
2020-03-17 10:00:00 13.7 12 Nordeste 39 Sudeste 0 -- -- 57
2020-03-17 09:00:00 13.5 9 Este 36 Este 0 -- -- 58
2020-03-17 08:00:00 13 10 Este 29 Este 0 -- -- 59
2020-03-17 07:00:00 12.6 10 Nordeste 24 Nordeste 0 -- -- 61
2020-03-17 06:00:00 12.4 10 Nordeste 19 Nordeste 0 -- -- 55
2020-03-17 05:00:00 11.8 6 Nordeste 13 Nordeste 0 -- -- 54
2020-03-17 04:00:00 11.7 6 Norte 12 Norte 0 -- -- 52
2020-03-17 03:00:00 11.6 3 Nordeste 10 Norte 0 -- -- 52
2020-03-17 02:00:00 11.9 5 Norte 10 Norte 0 -- -- 52
2020-03-17 01:00:00 12.2 6 Norte 10 Norte 0 -- -- 49
2020-03-17 00:00:00 12.3 5 Norte 11 Noroeste 0 -- -- 49
2020-03-16 23:00:00 12.5 4 Noroeste 14 Oeste 0 -- -- 45
2020-03-16 22:00:00 12.4 6 Norte 9 Norte 0 -- -- 46
2020-03-16 21:00:00 12.8 3 Sudoeste 12 Oeste 0 -- -- 44
2020-03-16 20:00:00 13.4 4 Noroeste 14 Noroeste 0 -- -- 42
2020-03-16 19:00:00 15.3 8 Oeste 26 Noroeste 0 -- -- 36
2020-03-16 18:00:00 17.5 8 Noroeste 32 Oeste 0 -- -- 33
2020-03-16 17:00:00 17.3 7 Norte 42 Oeste 0 -- -- 33
2020-03-16 16:00:00 18.2 15 Sudoeste 41 Sudoeste 0 -- -- 30
2020-03-16 15:00:00 18.4 18 Sudoeste 41 Oeste 0 -- -- 28
2020-03-16 14:00:00 19.3 7 Norte 35 Oeste 0 -- -- 26
2020-03-16 13:00:00 18.1 15 Sudoeste 35 Sudoeste 0 -- -- 27
2020-03-16 12:00:00 16 10 Sudoeste 22 Sudoeste 0 -- -- 32
2020-03-16 11:00:00 15.3 5 Sudoeste 17 Sudoeste 0 -- -- 45
2020-03-16 10:00:00 14.8 4 Sudoeste 15 Oeste 0 -- -- 61
2020-03-16 09:00:00 14.5 4 Noroeste 17 Oeste 0 -- -- 75
2020-03-16 08:00:00 13.6 5 Noroeste 9 Oeste 0 -- -- 87
2020-03-16 07:00:00 13.7 0 Calma 8 Noroeste 0 -- -- 85
2020-03-16 06:00:00 13.8 3 Noroeste 8 Noroeste 0 -- -- 84
2020-03-16 05:00:00 13.9 3 Oeste 13 Oeste 0 -- -- 85
2020-03-16 04:00:00 13.5 7 Noroeste 13 Noroeste 0 -- -- 87
2020-03-16 03:00:00 13.4 6 Noroeste 10 Noroeste 0 -- -- 89
2020-03-16 02:00:00 12.9 3 Norte 9 Norte 0 -- -- 92
2020-03-16 01:00:00 12.6 3 Norte 14 Norte 0 -- -- 89
2020-03-16 00:00:00 14 5 Norte 9 Norte 0 -- -- 86
2020-03-15 23:00:00 14.2 4 Norte 12 Norte 0 -- -- 88
2020-03-15 22:00:00 14.1 3 Noroeste 9 Norte 0 -- -- 89
2020-03-15 21:00:00 14.4 0 Calma 5 Sudoeste 0 -- -- 89
2020-03-15 20:00:00 14.3 0 Calma 8 Sudoeste 0 -- -- 88
2020-03-15 19:00:00 14.5 5 Sudoeste 9 Oeste 0 -- -- 88
2020-03-15 18:00:00 14.5 3 Sudoeste 10 Oeste 0 -- -- 90
2020-03-15 17:00:00 14.7 3 Sur 6 Sur 0 -- -- 89
2020-03-15 16:00:00 14.5 0 Calma 13 Sudeste 0 -- -- 91
2020-03-15 15:00:00 14.8 3 Sur 8 Sudeste 0.2 -- -- 92
2020-03-15 14:00:00 15.2 3 Sudeste 10 Sur 0 -- -- 89
2020-03-15 13:00:00 15.4 3 Sudeste 10 Este 0.2 -- -- 88
2020-03-15 12:00:00 15.6 2 Sudeste 12 Este 0 -- -- 80
2020-03-15 11:00:00 15.7 4 Este 9 Sudeste 0 -- -- 80
2020-03-15 10:00:00 15 5 Sudeste 12 Sudeste 0 -- -- 86
2020-03-15 09:00:00 14.5 3 Sur 6 Este 0 -- -- 89
2020-03-15 08:00:00 13.8 3 Noroeste 7 Noroeste 0 -- -- 92
2020-03-15 07:00:00 13.5 0 Calma 5 Oeste 0 -- -- 91
2020-03-15 06:00:00 13.9 0 Calma 5 Sudoeste 0 -- -- 91
2020-03-15 05:00:00 14.7 0 Calma 8 Norte 0 -- -- 89
2020-03-15 04:00:00 14.6 3 Noroeste 5 Noroeste 0 -- -- 92
2020-03-15 03:00:00 14.9 0 Calma 7 Sudeste 0 -- -- 89
2020-03-15 02:00:00 14.7 4 Norte 9 Norte 0 -- -- 86
2020-03-15 01:00:00 13.9 6 Norte 11 Norte 0 -- -- 88
2020-03-15 00:00:00 13 3 Norte 8 Norte 0 -- -- 90
2020-03-14 23:00:00 13.2 2 Nordeste 4 Este 0 -- -- 89
2020-03-14 22:00:00 13.6 3 Norte 6 Norte 0 -- -- 87
2020-03-14 21:00:00 13.6 4 Norte 5 Norte 0 -- -- 85
2020-03-14 20:00:00 14.7 4 Norte 5 Norte 0 -- -- 81
2020-03-14 19:00:00 16.7 2 Sudeste 8 Sudeste 0 -- -- 76
2020-03-14 18:00:00 17.8 4 Sudeste 12 Sur 0 -- -- 71
2020-03-14 17:00:00 18.3 5 Sudeste 14 Sudoeste 0 -- -- 68
2020-03-14 16:00:00 19.1 7 Sur 15 Sudoeste 0 -- -- 70
2020-03-14 15:00:00 18.9 6 Sur 18 Sudeste 0 -- -- 72
2020-03-14 14:00:00 19.1 6 Sur 16 Sur 0 -- -- 67
2020-03-14 13:00:00 19.1 8 Sur 17 Sur 0 -- -- 68
2020-03-14 12:00:00 18.5 8 Sur 14 Sur 0 -- -- 69
2020-03-14 11:00:00 18 6 Sur 13 Sur 0 -- -- 70
2020-03-14 10:00:00 16.5 4 Sudoeste 10 Sudoeste 0 -- -- 75
2020-03-14 09:00:00 14.9 4 Norte 9 Nordeste 0 -- -- 81
2020-03-14 08:00:00 13.8 6 Norte 12 Norte 0 -- -- 84
2020-03-14 07:00:00 13.3 9 Norte 14 Norte 0 -- -- 84
2020-03-14 06:00:00 14.8 6 Norte 12 Norte 0 -- -- 81
2020-03-14 05:00:00 14.8 4 Norte 8 Norte 0 -- -- 83
2020-03-14 04:00:00 14.6 5 Norte 11 Norte 0 -- -- 85
2020-03-14 03:00:00 14.3 3 Nordeste 5 Este 0 -- -- 90
2020-03-14 02:00:00 13.4 0 Calma 4 Norte 0 -- -- 91
2020-03-14 01:00:00 13.9 3 Norte 6 Noroeste 0 -- -- 89
2020-03-14 00:00:00 14 3 Noroeste 7 Noroeste 0 -- -- 87
2020-03-13 23:00:00 14.1 3 Noroeste 8 Oeste 0 -- -- 82
2020-03-13 22:00:00 14.4 3 Nordeste 5 Este 0 -- -- 80
2020-03-13 21:00:00 15.1 3 Oeste 8 Noroeste 0 -- -- 72
2020-03-13 20:00:00 16.6 2 Sudeste 9 Este 0 -- -- 72
2020-03-13 19:00:00 18.5 4 Sur 17 Este 0 -- -- 62
2020-03-13 18:00:00 19.5 10 Sudeste 20 Este 0 -- -- 54
2020-03-13 17:00:00 20.3 5 Sudeste 17 Sudeste 0 -- -- 56
2020-03-13 16:00:00 20.5 6 Sudeste 19 Este 0 -- -- 58
2020-03-13 15:00:00 19.5 6 Sudeste 16 Sudeste 0 -- -- 70
2020-03-13 14:00:00 21.1 5 Sur 16 Sudeste 0 -- -- 54
2020-03-13 13:00:00 20.4 6 Sudeste 14 Sudeste 0 -- -- 54
2020-03-13 12:00:00 19.6 5 Sudeste 11 Sudeste 0 -- -- 56
2020-03-13 11:00:00 19.7 5 Sur 10 Sur 0 -- -- 56
2020-03-13 10:00:00 18.2 0 Calma 5 Sudeste 0 -- -- 56
2020-03-13 09:00:00 17.1 2 Este 5 Sudeste 0 -- -- 55
2020-03-13 08:00:00 15.1 0 Calma 9 Norte 0 -- -- 59
2020-03-13 07:00:00 16 0 Calma 8 Norte 0 -- -- 54
2020-03-13 06:00:00 16.3 0 Calma 10 Norte 0 -- -- 53
2020-03-13 05:00:00 16.8 8 Norte 14 Norte 0 -- -- 51
2020-03-13 04:00:00 16.2 7 Norte 9 Noroeste 0 -- -- 54
2020-03-13 03:00:00 16.5 4 Noroeste 8 Oeste 0 -- -- 53
2020-03-13 02:00:00 17 0 Calma 7 Norte 0 -- -- 52
2020-03-13 01:00:00 16.9 4 Noroeste 7 Norte 0 -- -- 54
2020-03-13 00:00:00 17.8 2 Noroeste 8 Norte 0 -- -- 51
2020-03-12 23:00:00 17.7 2 Oeste 10 Norte 0 -- -- 53
2020-03-12 22:00:00 17.9 3 Norte 9 Norte 0 -- -- 52
2020-03-12 21:00:00 17.5 0 Calma 6 Norte 0 -- -- 52
2020-03-12 20:00:00 18.5 0 Calma 6 Norte 0 -- -- 53
2020-03-12 19:00:00 21.5 0 Calma 6 Sudeste 0 -- -- 47
2020-03-12 18:00:00 22 4 Sur 10 Sudeste 0 -- -- 46
2020-03-12 17:00:00 22.9 5 Sur 10 Sur 0 -- -- 45
2020-03-12 16:00:00 23.1 8 Sudoeste 15 Sudoeste 0 -- -- 41
2020-03-12 15:00:00 23.8 8 Sudoeste 15 Sudoeste 0 -- -- 40
2020-03-12 14:00:00 24.6 8 Sur 15 Sur 0 -- -- 36
2020-03-12 13:00:00 24.2 8 Sur 13 Sur 0 -- -- 35
2020-03-12 12:00:00 24.4 4 Sur 9 Sudeste 0 -- -- 36
2020-03-12 11:00:00 23.1 5 Sudoeste 10 Sur 0 -- -- 37
2020-03-12 10:00:00 22.3 4 Sudoeste 18 Este 0 -- -- 39
2020-03-12 09:00:00 23.4 7 Norte 18 Nordeste 0 -- -- 35
2020-03-12 08:00:00 19.2 4 Norte 10 Norte 0 -- -- 44
2020-03-12 07:00:00 18.8 2 Norte 13 Nordeste 0 -- -- 44
2020-03-12 06:00:00 18.2 2 Norte 7 Norte 0 -- -- 44
2020-03-12 05:00:00 17.7 4 Norte 12 Oeste 0 -- -- 45
2020-03-12 04:00:00 17.1 3 Noroeste 22 Norte 0 -- -- 47
2020-03-12 03:00:00 16.4 12 Norte 20 Norte 0 -- -- 52
2020-03-12 02:00:00 15.8 6 Norte 10 Nordeste 0 -- -- 55
2020-03-12 01:00:00 16 4 Nordeste 12 Norte 0 -- -- 57
2020-03-12 00:00:00 16.1 0 Calma 9 Oeste 0 -- -- 64
2020-03-11 23:00:00 18.1 7 Oeste 15 Oeste 0 -- -- 50
2020-03-11 22:00:00 21.9 2 Este 7 Oeste 0 -- -- 31
2020-03-11 21:00:00 21.9 5 Noroeste 15 Norte 0 -- -- 32
2020-03-11 20:00:00 22.9 8 Norte 14 Norte 0 -- -- 30
2020-03-11 19:00:00 25.3 0 Calma 5 Sur 0 -- -- 33
2020-03-11 18:00:00 24.7 2 Oeste 9 Sudeste 0 -- -- 43
2020-03-11 17:00:00 27.3 3 Sudeste 6 Sur 0 -- -- 31
2020-03-11 16:00:00 25.6 4 Sur 9 Sudeste 0 -- -- 36
2020-03-11 15:00:00 23.7 5 Sudeste 10 Sur 0 -- -- 40
2020-03-11 14:00:00 22.9 6 Sur 10 Sur 0 -- -- 41
2020-03-11 13:00:00 21.3 5 Sur 10 Sur 0 -- -- 43
2020-03-11 12:00:00 19.4 6 Sur 11 Sudeste 0 -- -- 50
2020-03-11 11:00:00 19.3 4 Sur 8 Sudoeste 0 -- -- 56
2020-03-11 10:00:00 17.9 2 Sudoeste 7 Sur 0 -- -- 55
2020-03-11 09:00:00 15.9 2 Oeste 8 Noroeste 0 -- -- 55
2020-03-11 08:00:00 14.1 3 Nordeste 6 Este 0 -- -- 57
2020-03-11 07:00:00 14.4 0 Calma 8 Noroeste 0 -- -- 57
2020-03-11 06:00:00 14.6 4 Norte 12 Noroeste 0 -- -- 57
2020-03-11 05:00:00 14 2 Noroeste 14 Norte 0 -- -- 56
2020-03-11 04:00:00 13.9 3 Norte 12 Norte 0 -- -- 52
2020-03-11 03:00:00 14 5 Norte 12 Norte 0 -- -- 53
2020-03-11 02:00:00 14 6 Norte 11 Norte 0 -- -- 53
2020-03-11 01:00:00 14.3 7 Norte 12 Norte 0 -- -- 51
2020-03-11 00:00:00 14.2 7 Norte 15 Norte 0 -- -- 52
2020-03-10 23:00:00 14.3 10 Norte 14 Norte 0 -- -- 52
2020-03-10 22:00:00 14.3 4 Norte 12 Norte 0 -- -- 53
2020-03-10 21:00:00 14.9 8 Norte 13 Norte 0 -- -- 52
2020-03-10 20:00:00 15.6 7 Norte 10 Norte 0 -- -- 51
2020-03-10 19:00:00 18.2 4 Sudeste 12 Sudeste 0 -- -- 48
2020-03-10 18:00:00 19.5 5 Sudeste 14 Sudeste 0 -- -- 43
2020-03-10 17:00:00 20.1 7 Sudeste 19 Sudeste 0 -- -- 44
2020-03-10 16:00:00 20.3 8 Sudeste 19 Este 0 -- -- 43
2020-03-10 15:00:00 20.8 8 Sudeste 20 Sudeste 0 -- -- 43
2020-03-10 14:00:00 21.9 8 Sur 21 Sudeste 0 -- -- 42
2020-03-10 13:00:00 22.6 9 Sudeste 21 Sudeste 0 -- -- 36
2020-03-10 12:00:00 21.9 13 Sudeste 30 Sudeste 0 -- -- 35
2020-03-10 11:00:00 21.3 11 Sudeste 24 Sudeste 0 -- -- 38
2020-03-10 10:00:00 20.6 5 Sudeste 14 Este 0 -- -- 43
2020-03-10 09:00:00 17.6 5 Norte 13 Norte 0 -- -- 52
2020-03-10 08:00:00 14.5 6 Norte 12 Norte 0 -- -- 57
2020-03-10 07:00:00 13.9 4 Norte 9 Norte 0 -- -- 61
2020-03-10 06:00:00 13.8 5 Nordeste 13 Norte 0 -- -- 63
2020-03-10 05:00:00 13.1 9 Norte 12 Norte 0 -- -- 75
2020-03-10 04:00:00 13.7 0 Calma 11 Nordeste 0 -- -- 72
2020-03-10 03:00:00 13.9 6 Noroeste 18 Noroeste 0 -- -- 75
2020-03-10 02:00:00 14.9 8 Oeste 14 Noroeste 0 -- -- 80
2020-03-10 01:00:00 17 3 Sudoeste 15 Sudeste 0 -- -- 59
2020-03-10 00:00:00 18.7 11 Nordeste 24 Oeste 0 -- -- 40
2020-03-09 23:00:00 16.5 5 Nordeste 17 Norte 0 -- -- 43
2020-03-09 22:00:00 16.6 3 Sudeste 12 Nordeste 0 -- -- 44
2020-03-09 21:00:00 17 3 Este 15 Norte 0 -- -- 48
2020-03-09 20:00:00 17.2 6 Norte 9 Norte 0 -- -- 44
2020-03-09 19:00:00 21.2 0 Calma 8 Noroeste 0 -- -- 38
2020-03-09 18:00:00 21.4 4 Sur 10 Sur 0 -- -- 39
2020-03-09 17:00:00 22.6 5 Sur 13 Sur 0 -- -- 36
2020-03-09 16:00:00 21.9 5 Sur 12 Sudeste 0 -- -- 40
2020-03-09 15:00:00 21.2 7 Sudeste 13 Sudeste 0 -- -- 54
2020-03-09 14:00:00 21.6 5 Sur 12 Sur 0 -- -- 48
2020-03-09 13:00:00 19.7 6 Sudeste 15 Sudeste 0 -- -- 67
2020-03-09 12:00:00 20.2 6 Sudeste 16 Sudeste 0 -- -- 66
2020-03-09 11:00:00 20.8 4 Sudeste 17 Sudeste 0 -- -- 54
2020-03-09 10:00:00 20.8 5 Sudeste 13 Sudeste 0 -- -- 42
2020-03-09 09:00:00 18.6 8 Este 13 Nordeste 0 -- -- 43
2020-03-09 08:00:00 16.9 7 Nordeste 23 Sudoeste 0 -- -- 44
2020-03-09 07:00:00 17.9 5 Sudoeste 18 Noroeste 0 -- -- 40
2020-03-09 06:00:00 17.5 11 Norte 17 Norte 0 -- -- 39
2020-03-09 05:00:00 17.1 0 Calma 23 Noroeste 0 -- -- 34
2020-03-09 04:00:00 17.1 5 Nordeste 24 Norte 0 -- -- 35
2020-03-09 03:00:00 18 4 Sudoeste 23 Noroeste 0 -- -- 35
2020-03-09 02:00:00 14.9 4 Oeste 13 Noroeste 0 -- -- 44
2020-03-09 01:00:00 13.7 3 Nordeste 12 Sudoeste 0 -- -- 53
2020-03-09 00:00:00 14.1 4 Noroeste 10 Nordeste 0 -- -- 68